Time;durP1;ratioP1;P1;durP2;ratioP2;P2;SDS_P1;SDS_P2;PMS_P1;PMS_P2;Temp;Humidity;BMP_temperature;BMP_pressure;BME280_temperature;BME280_humidity;BME280_pressure;Samples;Min_cycle;Max_cycle;Signal;HPM_P1;HPM_P2
2024/02/04 00:01:04;;;;;;;;;;;;;;;6.79;100.00;99205.83;108230;1251;72939;-74
2024/02/04 00:03:32;;;;;;;;;;;;;;;6.80;100.00;99205.39;108244;1251;71679;-73
2024/02/04 00:06:00;;;;;;;;;;;;;;;6.80;100.00;99205.98;108240;1252;74707;-74
2024/02/04 00:08:28;;;;;;;;;;;;;;;6.84;100.00;99204.55;108323;1252;61480;-73
2024/02/04 00:10:56;;;;;;;;;;;;;;;6.86;100.00;99207.64;108221;1257;60071;-74
2024/02/04 00:13:23;;;;;;;;;;;;;;;6.87;100.00;99217.23;108308;1251;72060;-73
2024/02/04 00:15:54;;;;;;;;;;;;;;;6.88;100.00;99214.55;108318;1251;71749;-74
2024/02/04 00:18:22;;;;;;;;;;;;;;;6.91;100.00;99213.36;108354;1251;70599;-73
2024/02/04 00:20:50;;;;;;;;;;;;;;;6.93;100.00;99209.75;108285;1251;60394;-74
2024/02/04 00:23:17;;;;;;;;;;;;;;;6.96;100.00;99211.09;108254;1251;59482;-73
2024/02/04 00:25:45;;;;;;;;;;;;;;;6.99;100.00;99208.91;108305;1251;75333;-73
2024/02/04 00:28:13;;;;;;;;;;;;;;;6.99;100.00;99208.54;108338;1251;73834;-74
2024/02/04 00:30:41;;;;;;;;;;;;;;;6.99;100.00;99209.44;108201;1254;72858;-76
2024/02/04 00:33:09;;;;;;;;;;;;;;;7.00;100.00;99211.23;108316;1251;62180;-73
2024/02/04 00:35:36;;;;;;;;;;;;;;;7.00;100.00;99218.30;108239;1251;59597;-72
2024/02/04 00:38:05;;;;;;;;;;;;;;;7.02;100.00;99225.85;108185;1251;72089;-73
2024/02/04 00:40:32;;;;;;;;;;;;;;;7.02;100.00;99222.83;108196;1251;73018;-74
2024/02/04 00:43:05;;;;;;;;;;;;;;;7.03;100.00;99227.80;108259;1251;72750;-77
2024/02/04 00:45:33;;;;;;;;;;;;;;;7.05;100.00;99228.35;108143;1254;61755;-72
2024/02/04 00:48:01;;;;;;;;;;;;;;;7.05;100.00;99232.33;108224;1251;60673;-70
2024/02/04 00:50:30;;;;;;;;;;;;;;;7.01;100.00;99237.80;108139;1254;75374;-70
2024/02/04 00:52:58;;;;;;;;;;;;;;;6.90;100.00;99246.33;108169;1251;73465;-67
2024/02/04 00:55:25;;;;;;;;;;;;;;;6.75;100.00;99250.73;108168;1251;70792;-69
2024/02/04 00:57:55;;;;;;;;;;;;;;;6.61;100.00;99228.78;108164;1254;61671;-71
2024/02/04 01:00:23;;;;;;;;;;;;;;;6.45;100.00;99236.34;108190;1251;59756;-71
2024/02/04 01:02:50;;;;;;;;;;;;;;;6.30;100.00;99235.94;108120;1251;73834;-70
2024/02/04 01:05:19;;;;;;;;;;;;;;;6.23;100.00;99232.89;108291;1251;72898;-69
2024/02/04 01:07:47;;;;;;;;;;;;;;;6.17;100.00;99224.33;108234;1251;72620;-70
2024/02/04 01:10:14;;;;;;;;;;;;;;;6.17;100.00;99219.83;108162;1251;60107;-70
2024/02/04 01:12:42;;;;;;;;;;;;;;;6.15;100.00;99219.54;108165;1251;59014;-75
2024/02/04 01:15:10;;;;;;;;;;;;;;;6.14;100.00;99221.98;108193;1257;75322;-72
2024/02/04 01:17:38;;;;;;;;;;;;;;;6.12;100.00;99226.02;108122;1251;71423;-70
2024/02/04 01:20:06;;;;;;;;;;;;;;;6.14;100.00;99230.31;108126;1251;71935;-72
2024/02/04 01:22:33;;;;;;;;;;;;;;;6.11;100.00;99236.04;108186;1251;60899;-71
2024/02/04 01:25:01;;;;;;;;;;;;;;;6.09;100.00;99227.38;108176;1251;59956;-71
2024/02/04 01:27:29;;;;;;;;;;;;;;;6.10;100.00;99232.84;108223;1251;74386;-71
2024/02/04 01:29:57;;;;;;;;;;;;;;;6.11;100.00;99239.09;108187;1251;72703;-70
2024/02/04 01:32:25;;;;;;;;;;;;;;;6.09;100.00;99243.23;108168;1251;71493;-71
2024/02/04 01:34:52;;;;;;;;;;;;;;;6.10;100.00;99238.24;108149;1251;63096;-71
2024/02/04 01:37:21;;;;;;;;;;;;;;;6.09;100.00;99235.70;108184;1251;59585;-71
2024/02/04 01:39:48;;;;;;;;;;;;;;;6.08;100.00;99233.52;108141;1251;72150;-73
2024/02/04 01:42:16;;;;;;;;;;;;;;;6.07;100.00;99228.75;108199;1251;71731;-70
2024/02/04 01:44:44;;;;;;;;;;;;;;;6.08;100.00;99223.87;108124;1253;72967;-71
2024/02/04 01:47:11;;;;;;;;;;;;;;;6.08;100.00;99229.29;108153;1251;60064;-69
2024/02/04 01:49:39;;;;;;;;;;;;;;;6.12;100.00;99224.36;108240;1251;59807;-71
2024/02/04 01:52:07;;;;;;;;;;;;;;;6.15;100.00;99218.27;108144;1257;73218;-70
2024/02/04 01:54:35;;;;;;;;;;;;;;;6.17;100.00;99220.61;108097;1251;71465;-69
2024/02/04 01:57:03;;;;;;;;;;;;;;;6.17;100.00;99224.91;108157;1257;75027;-70
2024/02/04 01:59:31;;;;;;;;;;;;;;;6.21;100.00;99222.55;108000;1257;61604;-70
2024/02/04 02:01:59;;;;;;;;;;;;;;;6.23;100.00;99223.92;107951;1252;59483;-69
2024/02/04 02:04:27;;;;;;;;;;;;;;;6.25;100.00;99211.94;108078;1251;71756;-71
2024/02/04 02:06:55;;;;;;;;;;;;;;;6.26;100.00;99224.10;108159;1253;74108;-73
2024/02/04 02:09:25;;;;;;;;;;;;;;;6.26;100.00;99219.11;108179;1253;71548;-71
2024/02/04 02:11:54;;;;;;;;;;;;;;;6.27;100.00;99218.10;108149;1251;61202;-71
2024/02/04 02:14:24;;;;;;;;;;;;;;;6.28;100.00;99220.22;108264;1251;60713;-71
2024/02/04 02:16:51;;;;;;;;;;;;;;;6.28;100.00;99222.66;108166;1251;73985;-71
2024/02/04 02:19:32;;;;;;;;;;;;;;;6.32;100.00;99222.90;108254;1251;72905;-71
2024/02/04 02:22:02;;;;;;;;;;;;;;;6.38;100.00;99229.16;108143;1251;72853;-72
2024/02/04 02:24:32;;;;;;;;;;;;;;;6.40;100.00;99233.89;108340;1256;60901;-74
2024/02/04 02:27:00;;;;;;;;;;;;;;;6.40;100.00;99230.06;108223;1251;59627;-71
2024/02/04 02:29:28;;;;;;;;;;;;;;;6.43;100.00;99233.63;108168;1251;73152;-72
2024/02/04 02:31:55;;;;;;;;;;;;;;;6.46;100.00;99236.83;108162;1251;73892;-72
2024/02/04 02:34:23;;;;;;;;;;;;;;;6.49;100.00;99238.37;108201;1251;71986;-71
2024/02/04 02:37:22;;;;;;;;;;;;;;;6.52;100.00;99236.36;108384;1251;59932;-73
2024/02/04 02:39:54;;;;;;;;;;;;;;;6.52;100.00;99238.97;108133;1259;60730;-76
2024/02/04 02:42:22;;;;;;;;;;;;;;;6.50;100.00;99241.07;108238;1251;73219;-73
2024/02/04 02:44:50;;;;;;;;;;;;;;;6.50;100.00;99241.92;108153;1251;72717;-72
2024/02/04 02:47:18;;;;;;;;;;;;;;;6.48;100.00;99242.63;108166;1251;72457;-72
2024/02/04 02:49:46;;;;;;;;;;;;;;;6.49;100.00;99247.88;108208;1253;60908;-72
2024/02/04 02:52:14;;;;;;;;;;;;;;;6.49;100.00;99248.45;108186;1251;60111;-73
2024/02/04 02:54:41;;;;;;;;;;;;;;;6.48;100.00;99248.49;108158;1251;72748;-72
2024/02/04 02:57:09;;;;;;;;;;;;;;;6.46;100.00;99239.42;108153;1251;70539;-72
2024/02/04 02:59:37;;;;;;;;;;;;;;;6.46;100.00;99236.73;108232;1254;71763;-72
2024/02/04 03:02:05;;;;;;;;;;;;;;;6.44;100.00;99240.04;108188;1254;60866;-73
2024/02/04 03:04:32;;;;;;;;;;;;;;;6.44;100.00;99242.33;108216;1251;60504;-70
2024/02/04 03:07:01;;;;;;;;;;;;;;;6.45;100.00;99237.51;108164;1251;72371;-71
2024/02/04 03:09:29;;;;;;;;;;;;;;;6.48;100.00;99237.78;108239;1251;72550;-71
2024/02/04 03:11:56;;;;;;;;;;;;;;;6.51;100.00;99242.77;108133;1251;72655;-69
2024/02/04 03:14:24;;;;;;;;;;;;;;;6.56;100.00;99242.64;108200;1251;60949;-72
2024/02/04 03:16:52;;;;;;;;;;;;;;;6.64;100.00;99243.60;108178;1251;60359;-73
2024/02/04 03:19:22;;;;;;;;;;;;;;;6.68;100.00;99239.52;108216;1251;73906;-73
2024/02/04 03:21:49;;;;;;;;;;;;;;;6.72;99.91;99238.62;108179;1251;75313;-71
2024/02/04 03:24:17;;;;;;;;;;;;;;;6.75;98.24;99242.92;108237;1251;72701;-73
2024/02/04 03:26:45;;;;;;;;;;;;;;;6.79;97.33;99246.05;108348;1251;60396;-73
2024/02/04 03:29:13;;;;;;;;;;;;;;;6.80;96.17;99240.38;108355;1251;59989;-74
2024/02/04 03:31:41;;;;;;;;;;;;;;;6.77;95.28;99238.48;108223;1251;72547;-73
2024/02/04 03:34:10;;;;;;;;;;;;;;;6.71;94.60;99233.27;108321;1251;72476;-73
2024/02/04 03:36:39;;;;;;;;;;;;;;;6.65;94.14;99235.48;108135;1256;71496;-73
2024/02/04 03:39:07;;;;;;;;;;;;;;;6.57;94.23;99238.23;108271;1251;60914;-73
2024/02/04 03:41:35;;;;;;;;;;;;;;;6.50;94.68;99234.70;108206;1251;60269;-71
2024/02/04 03:44:03;;;;;;;;;;;;;;;6.46;94.95;99241.75;108197;1251;75214;-73
2024/02/04 03:46:31;;;;;;;;;;;;;;;6.43;95.30;99242.65;108113;1251;71970;-73
2024/02/04 03:48:59;;;;;;;;;;;;;;;6.39;95.74;99244.17;108125;1253;70606;-73
2024/02/04 03:51:27;;;;;;;;;;;;;;;6.33;96.19;99249.58;108192;1253;60349;-73
2024/02/04 03:53:54;;;;;;;;;;;;;;;6.26;96.91;99247.59;108199;1251;59594;-73
2024/02/04 03:56:22;;;;;;;;;;;;;;;6.22;98.18;99249.31;108164;1251;73845;-72
2024/02/04 03:58:50;;;;;;;;;;;;;;;6.18;99.44;99251.11;108121;1251;72872;-74
2024/02/04 04:01:18;;;;;;;;;;;;;;;6.15;100.00;99253.52;108249;1251;71535;-72
2024/02/04 04:03:46;;;;;;;;;;;;;;;6.12;100.00;99250.55;108194;1251;60964;-72
2024/02/04 04:06:14;;;;;;;;;;;;;;;6.11;100.00;99248.38;108322;1251;60396;-76
2024/02/04 04:08:42;;;;;;;;;;;;;;;6.11;100.00;99245.67;108277;1251;73854;-74
2024/02/04 04:11:10;;;;;;;;;;;;;;;6.10;100.00;99249.65;108157;1251;72516;-72
2024/02/04 04:13:37;;;;;;;;;;;;;;;6.09;100.00;99257.34;108187;1253;70616;-72
2024/02/04 04:16:06;;;;;;;;;;;;;;;6.09;100.00;99260.90;108226;1251;60936;-74
2024/02/04 04:18:34;;;;;;;;;;;;;;;6.10;100.00;99266.67;108234;1251;60286;-73
2024/02/04 04:21:02;;;;;;;;;;;;;;;6.09;100.00;99266.94;108373;1251;72915;-75
2024/02/04 04:23:31;;;;;;;;;;;;;;;6.10;100.00;99272.66;108226;1251;75428;-74
2024/02/04 04:25:58;;;;;;;;;;;;;;;6.11;100.00;99276.05;108179;1251;71476;-74
2024/02/04 04:28:26;;;;;;;;;;;;;;;6.11;100.00;99272.86;108189;1253;60427;-73
2024/02/04 04:30:53;;;;;;;;;;;;;;;6.11;99.83;99271.18;108251;1252;60283;-73
2024/02/04 04:33:21;;;;;;;;;;;;;;;6.11;98.83;99273.66;108222;1253;73848;-73
2024/02/04 04:35:50;;;;;;;;;;;;;;;6.14;98.19;99273.46;108189;1251;72873;-73
2024/02/04 04:38:17;;;;;;;;;;;;;;;6.16;97.41;99274.54;108227;1257;72752;-74
2024/02/04 04:40:45;;;;;;;;;;;;;;;6.18;96.84;99275.39;108223;1253;60298;-73
2024/02/04 04:43:13;;;;;;;;;;;;;;;6.19;96.62;99274.40;108152;1251;60236;-74
2024/02/04 04:45:41;;;;;;;;;;;;;;;6.19;96.48;99272.76;108164;1251;72587;-73
2024/02/04 04:48:09;;;;;;;;;;;;;;;6.18;96.39;99270.41;108261;1251;71608;-74
2024/02/04 04:50:37;;;;;;;;;;;;;;;6.16;96.04;99275.66;108225;1251;72729;-73
2024/02/04 04:53:05;;;;;;;;;;;;;;;6.14;96.00;99272.45;108185;1251;61408;-74
2024/02/04 04:55:34;;;;;;;;;;;;;;;6.12;96.30;99269.70;108185;1251;60316;-73
2024/02/04 04:58:02;;;;;;;;;;;;;;;6.09;97.19;99276.20;108292;1251;73938;-74
2024/02/04 05:00:30;;;;;;;;;;;;;;;6.05;98.37;99276.45;108182;1251;72709;-73
2024/02/04 05:03:00;;;;;;;;;;;;;;;6.03;99.83;99276.34;108458;1251;71653;-72
2024/02/04 05:05:31;;;;;;;;;;;;;;;6.02;100.00;99282.59;108176;1257;60508;-73
2024/02/04 05:07:58;;;;;;;;;;;;;;;6.01;100.00;99287.40;108311;1251;60277;-75
2024/02/04 05:10:26;;;;;;;;;;;;;;;6.02;100.00;99284.23;108232;1251;72832;-73
2024/02/04 05:12:54;;;;;;;;;;;;;;;6.01;100.00;99286.34;108353;1251;71730;-71
2024/02/04 05:15:22;;;;;;;;;;;;;;;6.02;100.00;99285.98;108182;1251;72713;-69
2024/02/04 05:17:51;;;;;;;;;;;;;;;6.02;100.00;99287.47;108188;1255;60323;-73
2024/02/04 05:20:19;;;;;;;;;;;;;;;6.00;100.00;99288.67;108199;1253;60297;-72
2024/02/04 05:22:46;;;;;;;;;;;;;;;6.00;100.00;99289.42;108211;1251;74127;-72
2024/02/04 05:25:14;;;;;;;;;;;;;;;5.99;100.00;99291.16;108143;1251;71593;-73
2024/02/04 05:27:42;;;;;;;;;;;;;;;5.97;100.00;99293.38;108271;1254;74986;-75
2024/02/04 05:30:10;;;;;;;;;;;;;;;5.95;100.00;99291.93;108215;1251;60418;-75
2024/02/04 05:32:37;;;;;;;;;;;;;;;5.95;100.00;99292.78;108182;1251;60330;-76
2024/02/04 05:35:07;;;;;;;;;;;;;;;5.92;100.00;99296.81;108212;1251;76000;-75
2024/02/04 05:37:36;;;;;;;;;;;;;;;5.91;100.00;99290.98;108368;1251;72770;-72
2024/02/04 05:40:05;;;;;;;;;;;;;;;5.90;100.00;99295.85;108237;1251;74540;-72
2024/02/04 05:42:32;;;;;;;;;;;;;;;5.90;100.00;99298.30;108240;1251;61071;-73
2024/02/04 05:45:03;;;;;;;;;;;;;;;5.93;100.00;99292.18;108254;1251;60002;-73
2024/02/04 05:47:31;;;;;;;;;;;;;;;5.94;100.00;99290.02;108191;1251;74541;-74
2024/02/04 05:49:58;;;;;;;;;;;;;;;5.96;100.00;99292.70;108238;1251;72689;-72
2024/02/04 05:52:27;;;;;;;;;;;;;;;5.97;100.00;99288.61;108244;1251;72955;-73
2024/02/04 05:54:55;;;;;;;;;;;;;;;6.00;100.00;99292.43;108200;1253;60844;-72
2024/02/04 05:57:23;;;;;;;;;;;;;;;6.00;100.00;99292.27;108257;1251;59603;-74
2024/02/04 05:59:52;;;;;;;;;;;;;;;6.03;100.00;99288.73;108231;1251;73964;-73
2024/02/04 06:02:20;;;;;;;;;;;;;;;6.09;100.00;99291.27;108181;1251;72777;-74
2024/02/04 06:04:48;;;;;;;;;;;;;;;6.05;100.00;99288.22;108223;1251;72698;-73
2024/02/04 06:07:16;;;;;;;;;;;;;;;6.06;100.00;99291.20;108270;1251;60818;-72
2024/02/04 06:09:44;;;;;;;;;;;;;;;6.16;100.00;99288.17;108268;1251;60294;-73
2024/02/04 06:12:12;;;;;;;;;;;;;;;6.23;100.00;99289.30;108167;1251;73860;-72
2024/02/04 06:14:40;;;;;;;;;;;;;;;6.27;99.48;99290.34;108197;1251;71428;-73
2024/02/04 06:17:08;;;;;;;;;;;;;;;6.30;98.05;99287.16;108238;1251;71498;-70
2024/02/04 06:19:36;;;;;;;;;;;;;;;6.34;97.38;99294.02;108233;1256;60239;-72
2024/02/04 06:22:04;;;;;;;;;;;;;;;6.38;96.46;99292.76;108188;1251;60403;-72
2024/02/04 06:24:33;;;;;;;;;;;;;;;6.36;95.17;99293.61;108262;1251;74432;-73
2024/02/04 06:27:01;;;;;;;;;;;;;;;6.38;94.44;99295.46;108193;1251;71610;-72
2024/02/04 06:29:28;;;;;;;;;;;;;;;6.40;93.48;99289.96;108213;1251;71542;-73
2024/02/04 06:31:56;;;;;;;;;;;;;;;6.42;92.87;99296.48;108145;1251;61116;-72
2024/02/04 06:34:24;;;;;;;;;;;;;;;6.43;92.58;99303.17;108199;1251;60574;-71
2024/02/04 06:36:52;;;;;;;;;;;;;;;6.43;92.39;99305.35;108219;1251;72859;-72
2024/02/04 06:39:20;;;;;;;;;;;;;;;6.47;91.96;99301.33;108170;1251;72731;-71
2024/02/04 06:41:48;;;;;;;;;;;;;;;6.49;91.75;99300.69;108199;1251;74836;-73
2024/02/04 06:44:15;;;;;;;;;;;;;;;6.50;91.41;99301.87;108175;1251;60425;-73
2024/02/04 06:46:43;;;;;;;;;;;;;;;6.54;90.89;99297.69;108155;1253;60384;-72
2024/02/04 06:49:17;;;;;;;;;;;;;;;6.55;90.27;99305.41;108249;1251;73656;-73
2024/02/04 06:51:47;;;;;;;;;;;;;;;6.56;89.80;99300.63;108229;1251;72675;-70
2024/02/04 06:54:14;;;;;;;;;;;;;;;6.56;89.13;99304.29;108185;1251;71248;-71
2024/02/04 06:56:42;;;;;;;;;;;;;;;6.57;89.02;99305.13;108178;1251;60985;-73
2024/02/04 06:59:10;;;;;;;;;;;;;;;6.59;88.96;99298.23;108336;1251;59484;-74
2024/02/04 07:01:37;;;;;;;;;;;;;;;6.61;88.89;99300.26;108226;1251;72831;-73
2024/02/04 07:04:05;;;;;;;;;;;;;;;6.61;88.53;99301.48;108220;1251;75088;-72
2024/02/04 07:06:33;;;;;;;;;;;;;;;6.64;88.38;99300.31;108258;1251;73958;-71
2024/02/04 07:09:01;;;;;;;;;;;;;;;6.66;87.92;99305.11;108200;1251;60262;-71
2024/02/04 07:11:29;;;;;;;;;;;;;;;6.66;87.72;99309.83;108190;1257;60541;-71
2024/02/04 07:14:00;;;;;;;;;;;;;;;6.70;87.63;99309.83;108167;1251;72842;-69
2024/02/04 07:16:27;;;;;;;;;;;;;;;6.74;87.62;99314.67;108177;1251;71487;-73
2024/02/04 07:18:56;;;;;;;;;;;;;;;6.76;87.29;99309.85;108195;1253;72791;-71
2024/02/04 07:21:24;;;;;;;;;;;;;;;6.78;87.03;99318.55;108184;1257;60291;-73
2024/02/04 07:23:51;;;;;;;;;;;;;;;6.80;87.15;99315.48;108216;1251;60272;-73
2024/02/04 07:26:19;;;;;;;;;;;;;;;6.81;87.20;99321.05;108243;1251;72639;-74
2024/02/04 07:28:47;;;;;;;;;;;;;;;6.79;87.11;99319.35;108365;1251;72639;-72
2024/02/04 07:31:15;;;;;;;;;;;;;;;6.79;87.32;99321.11;108207;1251;72677;-73
2024/02/04 07:33:42;;;;;;;;;;;;;;;6.79;87.72;99323.60;108260;1251;60207;-72
2024/02/04 07:36:10;;;;;;;;;;;;;;;6.81;87.84;99329.91;108249;1251;60307;-72
2024/02/04 07:38:38;;;;;;;;;;;;;;;6.84;87.81;99323.45;108237;1251;72704;-71
2024/02/04 07:41:06;;;;;;;;;;;;;;;6.86;87.35;99319.53;108186;1251;72712;-73
2024/02/04 07:43:34;;;;;;;;;;;;;;;6.91;87.09;99327.40;108163;1251;71181;-70
2024/02/04 07:46:02;;;;;;;;;;;;;;;6.98;86.60;99316.27;108192;1251;61382;-73
2024/02/04 07:48:32;;;;;;;;;;;;;;;7.04;85.52;99317.70;108130;1257;59287;-70
2024/02/04 07:51:00;;;;;;;;;;;;;;;7.06;84.55;99316.05;108254;1251;72719;-73
2024/02/04 07:53:29;;;;;;;;;;;;;;;7.12;83.87;99316.02;108163;1251;72879;-71
2024/02/04 07:55:57;;;;;;;;;;;;;;;7.17;82.62;99318.14;108147;1251;72498;-71
2024/02/04 07:58:26;;;;;;;;;;;;;;;7.22;81.50;99315.64;108232;1253;61039;-71
2024/02/04 08:00:54;;;;;;;;;;;;;;;7.27;81.13;99318.30;108092;1257;59664;-72
2024/02/04 08:03:22;;;;;;;;;;;;;;;7.30;80.71;99326.80;108176;1251;73824;-71
2024/02/04 08:05:50;;;;;;;;;;;;;;;7.33;80.23;99316.55;108139;1251;71725;-73
2024/02/04 08:08:18;;;;;;;;;;;;;;;7.37;80.16;99323.68;108256;1253;71487;-72
2024/02/04 08:10:45;;;;;;;;;;;;;;;7.36;79.09;99326.33;108250;1251;59236;-73
2024/02/04 08:13:14;;;;;;;;;;;;;;;7.36;78.94;99322.66;108262;1251;60495;-71
2024/02/04 08:15:41;;;;;;;;;;;;;;;7.33;78.59;99325.69;108258;1251;73848;-72
2024/02/04 08:18:09;;;;;;;;;;;;;;;7.33;78.60;99323.19;108225;1251;72712;-71
2024/02/04 08:20:37;;;;;;;;;;;;;;;7.32;78.46;99327.77;108222;1251;72713;-71
2024/02/04 08:23:05;;;;;;;;;;;;;;;7.30;78.52;99323.24;108272;1253;60882;-72
2024/02/04 08:25:32;;;;;;;;;;;;;;;7.29;78.62;99325.38;108302;1251;59199;-70
2024/02/04 08:28:00;;;;;;;;;;;;;;;7.32;78.85;99320.33;108390;1251;73928;-71
2024/02/04 08:30:27;;;;;;;;;;;;;;;7.32;78.85;99321.61;108265;1251;71643;-72
2024/02/04 08:32:55;;;;;;;;;;;;;;;7.31;78.83;99314.08;108107;1251;71082;-72
2024/02/04 08:35:23;;;;;;;;;;;;;;;7.30;78.93;99325.21;108174;1253;60406;-71
2024/02/04 08:37:51;;;;;;;;;;;;;;;7.28;79.26;99324.42;108201;1251;60412;-72
2024/02/04 08:40:18;;;;;;;;;;;;;;;7.29;79.75;99324.25;109358;1253;75968;-73
2024/02/04 08:42:46;;;;;;;;;;;;;;;7.31;79.96;99327.75;109316;1252;72803;-73
2024/02/04 08:45:13;;;;;;;;;;;;;;;7.33;80.22;99320.64;109356;1251;72723;-71
2024/02/04 08:47:41;;;;;;;;;;;;;;;7.36;80.59;99321.39;109404;1251;58201;-71
2024/02/04 08:50:10;;;;;;;;;;;;;;;7.41;80.42;99318.79;109508;1251;59763;-72
2024/02/04 08:52:38;;;;;;;;;;;;;;;7.46;80.47;99326.06;109467;1251;76031;-71
2024/02/04 08:55:06;;;;;;;;;;;;;;;7.50;80.45;99315.06;109381;1251;73134;-72
2024/02/04 08:57:34;;;;;;;;;;;;;;;7.58;80.48;99320.16;109383;1252;75177;-70
2024/02/04 09:00:02;;;;;;;;;;;;;;;7.70;80.39;99318.13;109355;1252;61756;-72
2024/02/04 09:02:29;;;;;;;;;;;;;;;7.82;79.97;99325.02;109359;1251;59907;-72
2024/02/04 09:04:57;;;;;;;;;;;;;;;7.89;79.24;99317.45;109347;1251;72470;-70
2024/02/04 09:07:25;;;;;;;;;;;;;;;7.91;78.29;99316.92;109399;1251;71348;-71
2024/02/04 09:09:52;;;;;;;;;;;;;;;7.90;77.78;99318.58;109368;1251;72128;-70
2024/02/04 09:12:20;;;;;;;;;;;;;;;7.87;77.84;99309.17;109406;1251;59590;-71
2024/02/04 09:14:47;;;;;;;;;;;;;;;7.84;77.76;99312.20;109396;1251;58150;-71
2024/02/04 09:17:15;;;;;;;;;;;;;;;7.77;77.49;99303.23;109418;1251;73921;-72
2024/02/04 09:19:43;;;;;;;;;;;;;;;7.73;77.98;99301.11;109340;1251;74821;-71
2024/02/04 09:22:10;;;;;;;;;;;;;;;7.70;78.25;99301.60;109452;1251;72659;-72
2024/02/04 09:24:40;;;;;;;;;;;;;;;7.69;78.05;99299.31;109499;1251;60898;-72
2024/02/04 09:27:08;;;;;;;;;;;;;;;7.74;78.28;99302.60;109462;1251;60250;-74
2024/02/04 09:29:35;;;;;;;;;;;;;;;7.81;77.34;99302.42;109431;1251;73808;-70
2024/02/04 09:32:03;;;;;;;;;;;;;;;7.89;77.19;99299.33;109431;1253;71510;-71
2024/02/04 09:34:31;;;;;;;;;;;;;;;8.00;76.24;99290.25;109423;1251;71439;-71
2024/02/04 09:39:22;;;;;;;;;;;;;;;8.19;74.42;99289.98;104913;1290;611598;-69
2024/02/04 09:41:49;;;;;;;;;;;;;;;8.15;73.01;99287.80;107354;1264;60127;-70
2024/02/04 09:44:16;;;;;;;;;;;;;;;8.10;72.71;99276.61;107414;1263;60185;-70
2024/02/04 09:46:45;;;;;;;;;;;;;;;8.10;72.32;99277.41;107368;1269;71935;-71
2024/02/04 09:49:13;;;;;;;;;;;;;;;8.07;72.05;99277.04;107359;1266;72310;-70
2024/02/04 09:51:41;;;;;;;;;;;;;;;8.03;72.25;99278.06;106897;1261;703471;-72
2024/02/04 09:54:09;;;;;;;;;;;;;;;7.98;72.16;99277.66;107528;1261;59538;-70
2024/02/04 09:56:38;;;;;;;;;;;;;;;7.93;71.96;99277.02;107687;1261;59951;-71
2024/02/04 09:59:05;;;;;;;;;;;;;;;7.87;72.03;99267.95;107504;1264;71384;-74
2024/02/04 10:01:32;;;;;;;;;;;;;;;7.82;71.90;99275.21;107479;1264;72666;-72
2024/02/04 10:04:01;;;;;;;;;;;;;;;7.80;72.06;99266.92;107557;1267;72624;-67
2024/02/04 10:06:28;;;;;;;;;;;;;;;7.79;71.87;99259.84;107468;1263;61173;-72
2024/02/04 10:08:56;;;;;;;;;;;;;;;7.82;71.80;99251.86;107483;1261;59940;-72
2024/02/04 10:11:23;;;;;;;;;;;;;;;7.84;71.74;99259.09;107512;1261;73633;-70
2024/02/04 10:13:50;;;;;;;;;;;;;;;7.85;71.52;99261.32;107559;1262;72739;-70
2024/02/04 10:16:17;;;;;;;;;;;;;;;7.85;71.25;99261.48;107910;1261;72535;-71
2024/02/04 10:18:44;;;;;;;;;;;;;;;7.88;70.92;99254.29;107560;1260;60010;-71
2024/02/04 10:21:30;;;;;;;;;;;;;;;7.91;69.91;99248.91;107591;1260;59766;-70
2024/02/04 10:23:58;;;;;;;;;;;;;;;7.96;69.79;99236.66;107600;1264;71608;-70
2024/02/04 10:26:30;;;;;;;;;;;;;;;8.05;69.28;99237.54;107762;1260;74263;-71
2024/02/04 10:28:57;;;;;;;;;;;;;;;8.12;67.97;99223.95;107597;1260;73032;-71
2024/02/04 10:31:25;;;;;;;;;;;;;;;8.19;68.14;99222.48;107641;1261;60023;-71
2024/02/04 10:33:52;;;;;;;;;;;;;;;8.25;67.96;99217.91;107593;1260;59641;-69
2024/02/04 10:36:19;;;;;;;;;;;;;;;8.28;67.45;99217.91;107829;1261;73082;-70
2024/02/04 10:38:46;;;;;;;;;;;;;;;8.26;66.89;99209.99;107527;1260;73500;-70
2024/02/04 10:41:16;;;;;;;;;;;;;;;8.18;66.64;99207.16;107492;1262;73931;-72
2024/02/04 10:43:44;;;;;;;;;;;;;;;8.13;66.72;99213.89;107474;1265;60639;-72
2024/02/04 10:46:18;;;;;;;;;;;;;;;8.10;66.53;99215.06;107524;1260;61641;-70
2024/02/04 10:48:45;;;;;;;;;;;;;;;8.02;65.96;99213.25;107546;1260;74716;-71
2024/02/04 10:51:16;;;;;;;;;;;;;;;7.94;66.05;99206.58;107547;1260;73218;-72
2024/02/04 10:53:46;;;;;;;;;;;;;;;7.91;66.46;99205.67;107565;1260;72519;-71
2024/02/04 10:56:23;;;;;;;;;;;;;;;7.91;66.28;99204.04;107567;1265;59764;-70
2024/02/04 10:58:49;;;;;;;;;;;;;;;7.94;66.38;99198.75;107623;1260;60040;-72
2024/02/04 11:01:16;;;;;;;;;;;;;;;8.02;65.74;99212.33;107583;1261;73033;-70
2024/02/04 11:03:43;;;;;;;;;;;;;;;8.09;65.19;99200.70;107546;1260;72680;-70
2024/02/04 11:06:11;;;;;;;;;;;;;;;8.12;64.02;99201.39;107543;1260;72386;-70
2024/02/04 11:08:41;;;;;;;;;;;;;;;8.06;63.30;99207.69;107584;1260;60329;-71
2024/02/04 11:11:07;;;;;;;;;;;;;;;8.01;63.29;99208.67;107540;1260;60096;-70
2024/02/04 11:13:35;;;;;;;;;;;;;;;7.98;63.53;99208.69;107576;1260;73495;-69
2024/02/04 11:16:04;;;;;;;;;;;;;;;8.03;63.22;99208.98;107506;1260;72780;-70
2024/02/04 11:18:50;;;;;;;;;;;;;;;8.00;63.11;99216.39;107546;1266;72707;-70
2024/02/04 11:21:37;;;;;;;;;;;;;;;7.97;63.27;99221.98;107840;1260;59513;-69
2024/02/04 11:24:42;;;;;;;;;;;;;;;7.92;63.32;99228.17;107546;1260;60351;-69
2024/02/04 11:27:12;;;;;;;;;;;;;;;7.93;63.67;99236.09;107243;1269;71467;-70
2024/02/04 11:29:39;;;;;;;;;;;;;;;7.95;63.89;99235.02;107175;1269;73173;-71
2024/02/04 11:32:06;;;;;;;;;;;;;;;7.96;63.88;99241.77;107185;1270;71811;-70
2024/02/04 11:34:34;;;;;;;;;;;;;;;7.94;63.56;99243.64;107189;1269;59620;-68
2024/02/04 11:37:01;;;;;;;;;;;;;;;7.92;63.44;99244.33;107161;1269;59375;-71
2024/02/04 11:39:29;;;;;;;;;;;;;;;7.93;63.33;99241.35;107488;1260;72972;-68
2024/02/04 11:41:56;;;;;;;;;;;;;;;8.00;63.50;99234.20;107648;1260;71436;-70
2024/02/04 11:44:23;;;;;;;;;;;;;;;8.14;63.71;99237.02;107617;1265;72713;-69
2024/02/04 11:46:50;;;;;;;;;;;;;;;8.25;62.83;99238.35;107538;1260;59513;-71
2024/02/04 11:49:18;;;;;;;;;;;;;;;8.28;61.01;99257.48;107575;1260;59636;-68
2024/02/04 11:51:45;;;;;;;;;;;;;;;8.30;60.80;99250.83;107593;1260;73072;-70
2024/02/04 11:54:15;;;;;;;;;;;;;;;8.35;60.42;99249.89;107533;1261;73157;-70
2024/02/04 11:56:43;;;;;;;;;;;;;;;8.39;59.97;99243.30;107492;1260;73145;-70
2024/02/04 11:59:11;;;;;;;;;;;;;;;8.39;59.63;99239.20;107554;1260;60457;-70
2024/02/04 12:01:38;;;;;;;;;;;;;;;8.32;59.31;99239.69;107598;1260;61057;-70
2024/02/04 12:04:09;;;;;;;;;;;;;;;8.29;59.90;99242.96;107516;1260;72518;-70
2024/02/04 12:06:37;;;;;;;;;;;;;;;8.27;59.91;99244.02;107581;1260;71327;-69
2024/02/04 12:09:04;;;;;;;;;;;;;;;8.20;59.52;99245.30;107627;1261;71847;-70
2024/02/04 12:11:31;;;;;;;;;;;;;;;8.13;59.50;99247.44;107533;1260;59594;-70
2024/02/04 12:13:58;;;;;;;;;;;;;;;8.13;59.75;99240.80;107539;1260;59496;-71
2024/02/04 12:16:25;;;;;;;;;;;;;;;8.23;59.92;99240.80;107513;1263;72005;-70
2024/02/04 12:18:52;;;;;;;;;;;;;;;8.37;59.76;99240.27;107519;1266;72688;-72
2024/02/04 12:21:20;;;;;;;;;;;;;;;8.50;59.49;99235.53;107520;1260;71266;-70
2024/02/04 12:23:48;;;;;;;;;;;;;;;8.56;58.18;99237.89;107549;1260;59692;-71
2024/02/04 12:26:14;;;;;;;;;;;;;;;8.57;56.76;99239.00;107531;1261;60076;-71
2024/02/04 12:28:43;;;;;;;;;;;;;;;8.59;56.70;99248.74;107580;1260;71715;-71
2024/02/04 12:31:24;;;;;;;;;;;;;;;8.59;56.75;99246.23;107525;1260;71529;-71
2024/02/04 12:33:58;;;;;;;;;;;;;;;8.56;56.76;99247.84;107572;1260;72691;-70
2024/02/04 12:36:25;;;;;;;;;;;;;;;8.52;56.72;99246.98;107531;1260;59628;-70
2024/02/04 12:38:55;;;;;;;;;;;;;;;8.45;56.82;99245.84;107584;1260;59519;-70
2024/02/04 12:41:22;;;;;;;;;;;;;;;8.37;57.04;99249.64;108309;1251;71880;-70
2024/02/04 12:43:52;;;;;;;;;;;;;;;8.32;57.01;99248.54;108278;1251;72629;-73
2024/02/04 12:46:19;;;;;;;;;;;;;;;8.24;56.92;99251.06;108331;1251;70980;-70
2024/02/04 12:48:55;;;;;;;;;;;;;;;8.18;56.72;99245.84;108274;1251;59652;-72
2024/02/04 12:51:25;;;;;;;;;;;;;;;8.12;56.77;99249.21;108394;1251;59588;-70